Pagina principale
METAR-TAF:

METAR-TAF

Aeroporti :

Aeroporto di Dubrovnik

Ragusa, Croazia

latitudine: 42-34N, longitudine: 018-16E, altezza: 157 m

Osservazione

Il bollettino è stato emesso 15 minuti fa, alle 02:30 UTC
Vento 4 kt da est
Temperature 16°C
Umidità 63%
Pressione 1016 hPa
Visibilità 10 km o più
nessuna nube inferiore a 1500 m e nessun cumulonembo

METAR: LDDU 190230Z 09004KT CAVOK 16/09 Q1016 NOSIG

Ora: 04:45 (02:45 UTC)

Previsione

Il bollettino è stato emesso 3 ore e 20 minuti fa, alle 23:25 UTC
Previsione valida dal 19 alle 00 UTC al 20 alle 00 UTC
Vento 2 kt da direzioni variabili
Visibilità 10 km o più
nessuna nube inferiore a 1500 m e nessun cumulonembo
Temporaneamente
dal 19 alle 13 UTC al 19 alle 17 UTC
Vento 7 kt da ovest/nord-ovest

TAF: LDDU 182325Z 1900/2000 VRB02KT CAVOK TX23/1912Z TN15/1903Z TEMPO 1913/1917 30007KT

Osservazioni e previsioni meteorologiche di più di 4000 aeroporti (messaggi METAR e TAF).

Le stazioni disponibili sono rappresentate dai dischi gialli e rossi sulla carta.

Puntare il mouse per vedere il nome della stazione.

Clicca sopra per visualizzare le osservazioni e previsioni meteorologiche.

Per cambiare la mappa : fare clic sui pulsanti verdi con una croce nera per ingrandire, il pulsante verde con un trattino per diminuire, o sulla freccia verde per le mappe adiacenti.


METAR-TAF: